createdAt,value
2023-06-14T00:01:47.156Z,100823.33
2023-06-14T00:04:22.199Z,100825.05
2023-06-14T00:07:03.429Z,100825.04
2023-06-14T00:09:39.701Z,100824.00
2023-06-14T00:12:26.200Z,100827.02
2023-06-14T00:15:04.835Z,100827.02
2023-06-14T00:17:40.876Z,100830.70
2023-06-14T00:20:12.830Z,100832.52
2023-06-14T00:22:45.748Z,100832.98
2023-06-14T00:25:29.230Z,100836.41
2023-06-14T00:27:58.821Z,100834.65
2023-06-14T00:30:50.019Z,100833.90
2023-06-14T00:33:21.582Z,100835.95
2023-06-14T00:35:59.368Z,100837.65
2023-06-14T00:38:40.109Z,100837.84
2023-06-14T00:41:19.125Z,100835.08
2023-06-14T00:43:47.318Z,100834.23
2023-06-14T00:46:32.165Z,100834.02
2023-06-14T00:49:15.926Z,100834.03
2023-06-14T00:52:13.998Z,100832.84
2023-06-14T00:54:45.114Z,100834.61
2023-06-14T00:57:22.477Z,100836.46
2023-06-14T01:00:09.570Z,100838.48
2023-06-14T01:02:54.381Z,100839.98
2023-06-14T01:05:32.151Z,100836.34
2023-06-14T01:08:21.998Z,100835.52
2023-06-14T01:11:10.755Z,100837.34
2023-06-14T01:13:46.729Z,100838.84
2023-06-14T01:16:20.334Z,100845.48
2023-06-14T01:18:50.640Z,100842.98
2023-06-14T01:21:25.462Z,100842.30
2023-06-14T01:24:00.924Z,100849.55
2023-06-14T01:26:39.227Z,100851.02
2023-06-14T01:29:13.026Z,100855.42
2023-06-14T01:31:51.349Z,100857.33
2023-06-14T01:34:31.445Z,100854.77
2023-06-14T01:37:18.344Z,100861.90
2023-06-14T01:39:52.433Z,100858.48
2023-06-14T01:42:41.300Z,100858.79
2023-06-14T01:45:19.529Z,100854.96
2023-06-14T01:47:50.479Z,100854.54
2023-06-14T01:50:31.326Z,100853.30
2023-06-14T01:53:11.051Z,100856.37
2023-06-14T01:55:58.385Z,100854.09
2023-06-14T01:58:34.703Z,100856.12
2023-06-14T02:01:06.920Z,100860.44
2023-06-14T02:03:40.327Z,100862.10
2023-06-14T02:06:13.925Z,100862.96
2023-06-14T02:09:00.189Z,100867.71
2023-06-14T02:11:49.084Z,100864.70
2023-06-14T02:14:25.658Z,100870.21
2023-06-14T02:16:58.336Z,100871.04
2023-06-14T02:19:36.675Z,100876.38
2023-06-14T02:22:09.550Z,100875.70
2023-06-14T02:25:02.323Z,100878.66
2023-06-14T02:27:43.580Z,100880.15
2023-06-14T02:30:19.026Z,100881.61
2023-06-14T02:32:54.416Z,100885.00
2023-06-14T02:35:33.951Z,100887.27
2023-06-14T02:38:09.790Z,100893.64
2023-06-14T02:40:48.890Z,100894.33
2023-06-14T02:43:28.331Z,100898.30
2023-06-14T02:46:14.233Z,100901.82
2023-06-14T02:48:53.573Z,100902.30
2023-06-14T02:51:37.809Z,100908.27
2023-06-14T02:54:20.654Z,100916.65
2023-06-14T02:56:56.918Z,100924.42
2023-06-14T02:59:38.787Z,100932.43
2023-06-14T03:02:20.965Z,100934.40
2023-06-14T03:05:09.847Z,100935.69
2023-06-14T03:07:50.208Z,100935.58
2023-06-14T03:10:45.845Z,100937.90
2023-06-14T03:13:30.185Z,100931.50
2023-06-14T03:16:09.416Z,100931.69
2023-06-14T03:18:53.781Z,100931.77
2023-06-14T03:21:40.211Z,100934.98
2023-06-14T03:24:10.974Z,100934.30
2023-06-14T03:26:48.402Z,100935.60
2023-06-14T03:29:35.530Z,100939.81
2023-06-14T03:32:21.617Z,100953.42
2023-06-14T03:34:50.203Z,100960.35
2023-06-14T03:37:31.903Z,100971.35
2023-06-14T03:40:07.661Z,100976.89
2023-06-14T03:42:54.663Z,100975.39
2023-06-14T03:45:26.344Z,100967.61
2023-06-14T03:47:58.322Z,100952.63
2023-06-14T03:50:29.627Z,100940.52
2023-06-14T03:53:02.860Z,100944.48
2023-06-14T03:55:56.615Z,100942.86
2023-06-14T03:58:34.710Z,100931.77
2023-06-14T04:01:08.732Z,100919.91
2023-06-14T04:04:03.516Z,100918.17
2023-06-14T04:06:34.368Z,100912.58
2023-06-14T04:09:14.930Z,100908.08
2023-06-14T04:11:49.907Z,100905.86
2023-06-14T04:14:19.979Z,100908.95
2023-06-14T04:16:48.972Z,100902.88
2023-06-14T04:19:32.406Z,100907.25
2023-06-14T04:22:04.554Z,100911.66
2023-06-14T04:24:40.433Z,100911.11
2023-06-14T04:27:10.786Z,100913.73
2023-06-14T04:29:40.604Z,100920.20
2023-06-14T04:32:16.264Z,100924.51
2023-06-14T04:34:55.171Z,100927.21
2023-06-14T04:37:35.306Z,100933.02
2023-06-14T04:40:09.586Z,100937.45
2023-06-14T04:42:46.312Z,100941.95
2023-06-14T04:45:18.474Z,100942.37
2023-06-14T04:48:01.510Z,100943.73
2023-06-14T04:50:42.430Z,100941.13
2023-06-14T04:53:12.586Z,100939.89
2023-06-14T04:55:47.626Z,100938.66
2023-06-14T04:58:22.663Z,100935.34
2023-06-14T05:00:57.570Z,100937.54
2023-06-14T05:03:30.057Z,100944.34
2023-06-14T05:06:06.131Z,100943.90
2023-06-14T05:08:48.030Z,100946.51
2023-06-14T05:11:19.444Z,100956.27
2023-06-14T05:14:00.034Z,100958.30
2023-06-14T05:16:33.998Z,100956.02
2023-06-14T05:19:08.294Z,100953.85
2023-06-14T05:21:42.496Z,100951.08
2023-06-14T05:24:14.539Z,100948.28
2023-06-14T05:27:05.277Z,100946.64
2023-06-14T05:29:37.098Z,100948.99
2023-06-14T05:32:08.975Z,100954.72
2023-06-14T05:34:39.413Z,100955.02
2023-06-14T05:37:12.465Z,100956.75
2023-06-14T05:39:40.567Z,100955.58
2023-06-14T05:42:11.098Z,100962.10
2023-06-14T05:44:42.225Z,100964.42
2023-06-14T05:47:10.608Z,100961.10
2023-06-14T05:49:44.340Z,100962.11
2023-06-14T05:52:14.682Z,100949.58
2023-06-14T05:54:50.716Z,100942.16
2023-06-14T05:57:30.978Z,100938.09
2023-06-14T06:00:16.333Z,100938.01
2023-06-14T06:02:49.395Z,100928.48
2023-06-14T06:05:19.558Z,100915.64
2023-06-14T06:07:50.914Z,100911.79
2023-06-14T06:10:22.259Z,100904.04
2023-06-14T06:13:02.628Z,100905.35
2023-06-14T06:15:30.488Z,100899.48
2023-06-14T06:18:00.986Z,100895.34
2023-06-14T06:20:30.729Z,100893.86
2023-06-14T06:23:09.351Z,100895.75
2023-06-14T06:25:40.289Z,100895.75
2023-06-14T06:28:14.308Z,100892.41
2023-06-14T06:30:48.140Z,100887.96
2023-06-14T06:33:21.513Z,100885.79
2023-06-14T06:35:58.197Z,100880.94
2023-06-14T06:38:29.030Z,100882.86
2023-06-14T06:40:59.261Z,100888.52
2023-06-14T06:43:44.004Z,100882.82
2023-06-14T06:46:14.276Z,100880.22
2023-06-14T06:48:46.732Z,100876.32
2023-06-14T06:51:21.120Z,100869.37
2023-06-14T06:53:57.609Z,100875.27
2023-06-14T06:56:51.174Z,100867.95
2023-06-14T06:59:34.302Z,100863.26
2023-06-14T07:02:13.001Z,100859.55
2023-06-14T07:04:51.017Z,100857.52
2023-06-14T07:07:27.896Z,100852.71
2023-06-14T07:10:01.864Z,100850.60
2023-06-14T07:12:31.424Z,100852.27
2023-06-14T07:14:59.525Z,100848.77
2023-06-14T07:17:33.664Z,100849.92
2023-06-14T07:20:13.263Z,100847.23
2023-06-14T07:22:46.966Z,100849.67
2023-06-14T07:25:21.416Z,100848.52
2023-06-14T07:27:49.854Z,100854.67
2023-06-14T07:30:17.753Z,100852.99
2023-06-14T07:32:46.286Z,100850.27
2023-06-14T07:35:17.188Z,100855.24
2023-06-14T07:37:48.002Z,100851.56
2023-06-14T07:40:21.190Z,100845.89
2023-06-14T07:42:51.417Z,100844.02
2023-06-14T07:45:19.805Z,100850.54
2023-06-14T07:49:55.765Z,100855.56
2023-06-14T07:52:23.643Z,100851.91
2023-06-14T07:54:51.486Z,100846.34
2023-06-14T07:57:36.709Z,100843.52
2023-06-14T08:00:07.981Z,100840.80
2023-06-14T08:02:40.204Z,100841.20
2023-06-14T08:05:14.025Z,100835.67
2023-06-14T08:07:42.269Z,100835.90
2023-06-14T08:10:18.696Z,100829.36
2023-06-14T08:12:47.131Z,100830.49
2023-06-14T08:15:15.701Z,100823.70
2023-06-14T08:17:46.757Z,100825.91
2023-06-14T08:20:18.288Z,100833.58
2023-06-14T08:22:57.224Z,100837.21
2023-06-14T08:25:25.397Z,100830.50
2023-06-14T08:27:56.333Z,100832.82
2023-06-14T08:30:27.276Z,100836.73
2023-06-14T08:33:14.190Z,100839.69
2023-06-14T08:35:47.313Z,100837.45
2023-06-14T08:38:17.818Z,100835.95
2023-06-14T08:40:46.523Z,100829.84
2023-06-14T08:43:19.383Z,100820.84
2023-06-14T08:45:48.481Z,100816.70
2023-06-14T08:48:23.432Z,100819.73
2023-06-14T08:51:03.983Z,100814.48
2023-06-14T08:53:38.959Z,100819.30
2023-06-14T08:56:10.276Z,100811.45
2023-06-14T08:58:39.665Z,100805.41
2023-06-14T09:01:09.355Z,100808.26
2023-06-14T09:03:46.807Z,100808.29
2023-06-14T09:06:15.457Z,100806.86
2023-06-14T09:08:44.246Z,100807.02
2023-06-14T09:11:14.641Z,100798.60
2023-06-14T09:13:42.952Z,100799.08
2023-06-14T09:16:10.739Z,100798.70
2023-06-14T09:18:45.695Z,100800.40
2023-06-14T09:21:19.452Z,100799.99
2023-06-14T09:23:49.586Z,100796.10
2023-06-14T09:26:18.929Z,100793.02
2023-06-14T09:28:52.994Z,100786.92
2023-06-14T09:31:33.115Z,100797.69
2023-06-14T09:34:04.826Z,100801.32
2023-06-14T09:36:38.932Z,100801.21
2023-06-14T09:39:21.839Z,100793.65
2023-06-14T09:41:49.718Z,100789.20
2023-06-14T09:44:21.951Z,100780.61
2023-06-14T09:46:56.193Z,100774.21
2023-06-14T09:49:35.716Z,100770.77
2023-06-14T09:52:08.733Z,100769.69
2023-06-14T09:54:44.232Z,100770.50
2023-06-14T09:57:18.792Z,100773.88
2023-06-14T10:00:02.437Z,100776.73
2023-06-14T10:02:55.805Z,100783.17
2023-06-14T10:05:29.240Z,100781.20
2023-06-14T10:08:10.081Z,100787.84
2023-06-14T10:10:48.588Z,100785.55
2023-06-14T10:13:16.557Z,100788.80
2023-06-14T10:16:13.248Z,100785.64
2023-06-14T10:19:24.651Z,100782.30
2023-06-14T10:22:08.027Z,100775.70
2023-06-14T10:24:43.379Z,100769.77
2023-06-14T10:27:29.910Z,100772.25
2023-06-14T10:30:02.757Z,100774.24
2023-06-14T10:32:30.770Z,100782.17
2023-06-14T10:35:06.586Z,100780.50
2023-06-14T10:37:34.688Z,100779.20
2023-06-14T10:40:02.933Z,100780.86
2023-06-14T10:42:38.281Z,100771.95
2023-06-14T10:45:13.100Z,100769.58
2023-06-14T10:47:51.386Z,100772.21
2023-06-14T10:50:20.993Z,100769.45
2023-06-14T10:52:54.551Z,100770.25
2023-06-14T10:55:24.314Z,100763.45
2023-06-14T10:57:59.323Z,100760.92
2023-06-14T11:00:29.742Z,100759.23
2023-06-14T11:03:37.577Z,100754.18
2023-06-14T11:06:15.208Z,100750.10
2023-06-14T11:08:55.363Z,100751.16
2023-06-14T11:11:24.478Z,100757.96
2023-06-14T11:14:32.357Z,100755.04
2023-06-14T11:17:07.500Z,100752.46
2023-06-14T11:19:45.324Z,100751.03
2023-06-14T11:22:16.092Z,100750.94
2023-06-14T11:24:51.589Z,100748.98
2023-06-14T11:27:22.220Z,100748.36
2023-06-14T11:29:56.313Z,100755.59
2023-06-14T11:32:27.624Z,100754.10
2023-06-14T11:34:56.062Z,100758.25
2023-06-14T11:37:30.816Z,100759.49
2023-06-14T11:40:10.248Z,100752.93
2023-06-14T11:42:38.825Z,100751.84
2023-06-14T11:45:11.815Z,100747.55
2023-06-14T11:47:48.345Z,100746.06
2023-06-14T11:50:16.469Z,100744.98
2023-06-14T11:52:45.037Z,100741.84
2023-06-14T11:55:16.145Z,100739.86
2023-06-14T11:57:50.799Z,100741.06
2023-06-14T12:00:28.919Z,100734.28
2023-06-14T12:03:05.865Z,100731.77
2023-06-14T12:05:35.700Z,100728.73
2023-06-14T12:08:05.043Z,100727.85
2023-06-14T12:11:16.703Z,100727.70
2023-06-14T12:13:44.519Z,100723.72
2023-06-14T12:16:39.060Z,100724.98
2023-06-14T12:19:53.420Z,100722.30
2023-06-14T12:22:24.590Z,100718.73
2023-06-14T12:24:53.161Z,100717.70
2023-06-14T12:27:25.730Z,100719.65
2023-06-14T12:30:04.232Z,100721.45
2023-06-14T12:32:37.281Z,100719.23
2023-06-14T12:35:11.683Z,100717.70
2023-06-14T12:37:45.359Z,100717.16
2023-06-14T12:40:14.127Z,100721.84
2023-06-14T12:42:42.427Z,100710.09
2023-06-14T12:45:15.076Z,100711.45
2023-06-14T12:47:44.013Z,100711.02
2023-06-14T12:50:14.495Z,100708.13
2023-06-14T12:52:47.719Z,100704.88
2023-06-14T12:55:27.699Z,100704.74
2023-06-14T12:57:58.619Z,100705.20
2023-06-14T13:00:31.290Z,100699.66
2023-06-14T13:03:03.689Z,100694.58
2023-06-14T13:05:52.012Z,100692.52
2023-06-14T13:08:24.385Z,100686.59
2023-06-14T13:10:55.435Z,100686.75
2023-06-14T13:13:28.317Z,100687.16
2023-06-14T13:16:03.612Z,100682.19
2023-06-14T13:18:33.401Z,100677.15
2023-06-14T13:21:06.372Z,100674.64
2023-06-14T13:23:34.363Z,100672.89
2023-06-14T13:26:16.018Z,100671.65
2023-06-14T13:28:46.168Z,100668.02
2023-06-14T13:31:20.056Z,100668.04
2023-06-14T13:33:55.684Z,100666.73
2023-06-14T13:36:29.200Z,100660.80
2023-06-14T13:39:01.673Z,100652.87
2023-06-14T13:41:35.186Z,100649.90
2023-06-14T13:44:08.675Z,100648.73
2023-06-14T13:46:48.926Z,100644.25
2023-06-14T13:49:28.072Z,100646.00
2023-06-14T13:52:00.651Z,100644.15
2023-06-14T13:54:33.945Z,100640.81
2023-06-14T13:57:02.117Z,100648.58
2023-06-14T13:59:45.456Z,100647.17
2023-06-14T14:02:25.426Z,100643.05
2023-06-14T14:04:57.683Z,100638.32
2023-06-14T14:07:32.197Z,100629.89
2023-06-14T14:10:08.702Z,100629.09
2023-06-14T14:12:41.873Z,100623.72
2023-06-14T14:15:14.539Z,100619.44
2023-06-14T14:17:42.659Z,100622.73
2023-06-14T14:20:25.836Z,100620.46
2023-06-14T14:23:16.236Z,100615.42
2023-06-14T14:25:50.351Z,100614.25
2023-06-14T14:28:23.342Z,100607.31
2023-06-14T14:30:51.516Z,100603.87
2023-06-14T14:33:40.696Z,100601.23
2023-06-14T14:36:14.914Z,100596.02
2023-06-14T14:38:48.616Z,100589.64
2023-06-14T14:41:22.313Z,100593.27
2023-06-14T14:43:55.091Z,100594.30
2023-06-14T14:46:31.581Z,100596.36
2023-06-14T14:49:04.473Z,100598.25
2023-06-14T14:51:42.424Z,100593.58
2023-06-14T14:54:16.873Z,100595.96
2023-06-14T14:56:46.688Z,100592.83
2023-06-14T14:59:14.555Z,100591.34
2023-06-14T15:01:49.039Z,100587.69
2023-06-14T15:04:28.302Z,100591.15
2023-06-14T15:07:07.787Z,100592.08
2023-06-14T15:09:52.003Z,100588.11
2023-06-14T15:12:31.042Z,100582.94
2023-06-14T15:15:00.445Z,100579.55
2023-06-14T15:17:39.322Z,100581.54
2023-06-14T15:20:09.931Z,100580.41
2023-06-14T15:22:45.981Z,100579.81
2023-06-14T15:25:17.482Z,100579.89
2023-06-14T15:27:47.842Z,100585.45
2023-06-14T15:30:26.870Z,100592.06
2023-06-14T15:33:04.948Z,100584.11
2023-06-14T15:35:39.375Z,100588.51
2023-06-14T15:38:25.394Z,100585.02
2023-06-14T15:40:53.294Z,100583.87
2023-06-14T15:43:33.622Z,100589.83
2023-06-14T15:46:10.880Z,100586.12
2023-06-14T15:48:47.611Z,100582.81
2023-06-14T15:51:16.555Z,100577.77
2023-06-14T15:53:58.482Z,100576.73
2023-06-14T15:56:27.775Z,100571.70
2023-06-14T15:59:00.969Z,100576.55
2023-06-14T16:01:32.971Z,100580.38
2023-06-14T16:04:03.537Z,100578.70
2023-06-14T16:06:31.554Z,100580.85
2023-06-14T16:09:15.393Z,100582.19
2023-06-14T16:11:59.952Z,100584.75
2023-06-14T16:14:30.977Z,100582.84
2023-06-14T16:16:59.333Z,100586.74
2023-06-14T16:19:29.375Z,100590.02
2023-06-14T16:22:08.270Z,100591.47
2023-06-14T16:24:55.325Z,100590.85
2023-06-14T16:27:26.179Z,100593.11
2023-06-14T16:29:54.960Z,100596.95
2023-06-14T16:32:25.887Z,100599.45
2023-06-14T16:34:54.443Z,100600.45
2023-06-14T16:37:30.136Z,100602.03
2023-06-14T16:40:09.780Z,100599.22
2023-06-14T16:42:43.054Z,100596.38
2023-06-14T16:45:19.216Z,100591.81
2023-06-14T16:47:57.968Z,100594.17
2023-06-14T16:50:41.884Z,100593.48
2023-06-14T16:53:14.117Z,100597.36
2023-06-14T16:55:46.937Z,100596.80
2023-06-14T16:58:15.843Z,100600.60
2023-06-14T17:00:49.864Z,100604.71
2023-06-14T17:03:22.882Z,100612.84
2023-06-14T17:05:58.481Z,100615.38
2023-06-14T17:08:34.444Z,100615.91
2023-06-14T17:11:06.097Z,100617.00
2023-06-14T17:13:41.497Z,100619.13
2023-06-14T17:16:35.960Z,100618.81
2023-06-14T17:19:12.334Z,100622.86
2023-06-14T17:21:48.279Z,100625.86
2023-06-14T17:24:48.042Z,100621.91
2023-06-14T17:27:23.433Z,100623.27
2023-06-14T17:29:59.066Z,100622.58
2023-06-14T17:32:37.779Z,100631.38
2023-06-14T17:35:13.337Z,100634.52
2023-06-14T17:37:43.948Z,100639.30
2023-06-14T17:40:12.354Z,100641.48
2023-06-14T17:42:45.878Z,100645.26
2023-06-14T17:45:17.067Z,100648.95
2023-06-14T17:47:51.486Z,100655.60
2023-06-14T17:50:22.871Z,100657.34
2023-06-14T17:52:57.295Z,100657.64
2023-06-14T17:55:35.604Z,100661.06
2023-06-14T17:58:17.297Z,100665.55
2023-06-14T18:01:10.528Z,100670.46
2023-06-14T18:03:43.506Z,100673.81
2023-06-14T18:06:19.472Z,100673.93
2023-06-14T18:08:52.506Z,100680.20
2023-06-14T18:11:27.935Z,100679.46
2023-06-14T18:13:57.021Z,100686.23
2023-06-14T18:16:26.285Z,100687.42
2023-06-14T18:19:09.570Z,100693.42
2023-06-14T18:21:42.762Z,100703.43
2023-06-14T18:24:13.426Z,100705.58
2023-06-14T18:26:46.930Z,100706.05
2023-06-14T18:29:26.664Z,100709.01
2023-06-14T18:31:59.490Z,100707.96
2023-06-14T18:34:32.645Z,100709.36
2023-06-14T18:37:14.423Z,100711.81
2023-06-14T18:39:52.413Z,100720.03
2023-06-14T18:42:27.764Z,100721.10
2023-06-14T18:45:11.573Z,100728.98
2023-06-14T18:47:44.850Z,100730.70
2023-06-14T18:50:15.494Z,100732.55
2023-06-14T18:52:46.693Z,100733.30
2023-06-14T18:55:19.317Z,100735.77
2023-06-14T18:57:54.607Z,100734.33
2023-06-14T19:00:32.035Z,100735.55
2023-06-14T19:03:08.625Z,100734.65
2023-06-14T19:05:41.960Z,100734.46
2023-06-14T19:08:34.804Z,100733.72
2023-06-14T19:11:10.781Z,100734.14
2023-06-14T19:13:57.064Z,100732.01
2023-06-14T19:16:33.544Z,100733.52
2023-06-14T19:19:13.665Z,100730.92
2023-06-14T19:21:59.477Z,100731.95
2023-06-14T19:24:27.680Z,100730.88
2023-06-14T19:26:58.796Z,100732.16
2023-06-14T19:29:34.545Z,100735.08
2023-06-14T19:32:02.778Z,100737.87
2023-06-14T19:34:33.597Z,100739.27
2023-06-14T19:37:09.132Z,100739.50
2023-06-14T19:39:41.205Z,100742.95
2023-06-14T19:42:12.640Z,100743.25
2023-06-14T19:44:47.074Z,100742.48
2023-06-14T19:47:16.661Z,100739.50
2023-06-14T19:49:58.452Z,100743.30
2023-06-14T19:52:34.312Z,100745.95
2023-06-14T19:55:05.570Z,100746.63
2023-06-14T19:57:41.419Z,100748.29
2023-06-14T20:00:14.182Z,100752.79
2023-06-14T20:02:53.458Z,100758.46
2023-06-14T20:07:07.416Z,100762.67
2023-06-14T20:09:36.146Z,100768.38
2023-06-14T20:12:08.175Z,100770.37
2023-06-14T20:14:36.418Z,100772.06
2023-06-14T20:17:13.430Z,100777.66
2023-06-14T20:19:50.791Z,100777.80
2023-06-14T20:22:30.945Z,100783.63
2023-06-14T20:25:07.381Z,100791.66
2023-06-14T20:27:42.757Z,100794.96
2023-06-14T20:30:11.326Z,100797.77
2023-06-14T20:32:56.376Z,100794.59
2023-06-14T20:35:41.046Z,100798.30
2023-06-14T20:38:11.033Z,100800.91
2023-06-14T20:40:42.028Z,100799.94
2023-06-14T20:43:12.765Z,100802.75
2023-06-14T20:45:44.618Z,100801.50
2023-06-14T20:48:21.616Z,100804.10
2023-06-14T20:51:00.873Z,100810.58
2023-06-14T20:53:42.249Z,100810.77
2023-06-14T20:56:18.938Z,100813.31
2023-06-14T20:58:54.165Z,100814.27
2023-06-14T21:01:26.836Z,100812.24
2023-06-14T21:04:08.895Z,100811.42
2023-06-14T21:06:51.820Z,100818.65
2023-06-14T21:09:24.748Z,100821.05
2023-06-14T21:12:00.797Z,100825.52
2023-06-14T21:14:28.996Z,100829.48
2023-06-14T21:17:01.979Z,100831.07
2023-06-14T21:19:29.832Z,100830.96
2023-06-14T21:22:20.943Z,100834.05
2023-06-14T21:25:10.121Z,100836.32
2023-06-14T21:27:58.966Z,100835.20
2023-06-14T21:30:41.396Z,100831.80
2023-06-14T21:33:26.961Z,100836.45
2023-06-14T21:35:55.269Z,100839.02
2023-06-14T21:38:30.402Z,100841.48
2023-06-14T21:41:18.847Z,100845.38
2023-06-14T21:44:01.436Z,100845.88
2023-06-14T21:46:32.777Z,100847.42
2023-06-14T21:49:19.706Z,100847.00
2023-06-14T21:51:52.688Z,100843.44
2023-06-14T21:54:25.386Z,100847.52
2023-06-14T21:57:00.609Z,100846.13
2023-06-14T21:59:34.528Z,100852.61
2023-06-14T22:02:07.737Z,100851.08
2023-06-14T22:04:48.803Z,100853.40
2023-06-14T22:07:34.455Z,100858.19
2023-06-14T22:10:08.711Z,100859.42
2023-06-14T22:12:40.967Z,100864.17
2023-06-14T22:15:17.049Z,100861.85
2023-06-14T22:17:50.695Z,100863.59
2023-06-14T22:20:20.305Z,100861.95
2023-06-14T22:23:01.544Z,100860.36
2023-06-14T22:25:42.092Z,100860.66
2023-06-14T22:28:31.783Z,100860.50
2023-06-14T22:31:06.204Z,100863.51
2023-06-14T22:34:08.825Z,100863.21
2023-06-14T22:36:54.045Z,100861.86
2023-06-14T22:39:37.302Z,100863.16
2023-06-14T22:42:14.898Z,100868.95
2023-06-14T22:44:53.008Z,100873.50
2023-06-14T22:47:26.918Z,100874.48
2023-06-14T22:52:37.269Z,100882.36
2023-06-14T22:55:20.074Z,100882.21
2023-06-14T22:58:16.626Z,100884.58
2023-06-14T23:00:53.228Z,100890.16
2023-06-14T23:03:32.063Z,100889.95
2023-06-14T23:06:14.737Z,100884.95
2023-06-14T23:08:55.010Z,100881.33
2023-06-14T23:11:38.054Z,100879.59
2023-06-14T23:14:13.174Z,100877.33
2023-06-14T23:16:49.267Z,100879.35
2023-06-14T23:19:31.522Z,100882.13
2023-06-14T23:22:04.029Z,100888.41
2023-06-14T23:24:36.990Z,100888.39
2023-06-14T23:27:10.384Z,100891.90
2023-06-14T23:30:06.617Z,100894.84
2023-06-14T23:32:42.833Z,100902.48
2023-06-14T23:35:19.574Z,100909.38
2023-06-14T23:37:48.730Z,100913.19
2023-06-14T23:40:24.633Z,100914.02
2023-06-14T23:42:58.725Z,100920.85
2023-06-14T23:45:31.610Z,100925.55
2023-06-14T23:48:05.178Z,100931.10
2023-06-14T23:50:39.122Z,100932.92
2023-06-14T23:53:20.916Z,100936.17
2023-06-14T23:56:14.864Z,100935.77
2023-06-14T23:58:50.878Z,100936.69
